Bluffs, Illinois
Current Conditions -  °F | °C
As of 4:15 PM on Sunday 23 Nov 2014 (Local Time) from KPPQ Reporting Station
Overcast Overcast  
Wind Chill: 12°   Ceiling: 400
Heat Index: 12°   Visibility: 5mi
Dew Point: 11°   Wind: 5mph
Humidity: 93%   Direction: 130°SE
Pressure: 29.34"   Gusts: NA
Location:  39.75°N, 90.54°W
Report Text: KPPQ 232215Z AUTO 13004KT 5SM OVC004 12/11 A2934 RMK AO2 P0001 T01180107 PWINO
Loading
Personal Weather Stations






























Interactive Weather Map New forecast layout! Learn more

10-Day Weather Forecast

Advertisements
Track Severe Weather on mobile